This is the latest recevied weather packets stored in our database for station/object OM6ACB-6. If no packets are shown the sender has not sent any weather packets the latest 1 day(s).
| Time | Temp. | Humidity | Pressure | Rain* | Wind** | Luminosity | Snow |
|---|---|---|---|---|---|---|---|
| 1777996499 | 26.11° C | 20% | 1014.1 hPa | 0 mm | 2.68 m/s, 236° | - | - |
| 1777995899 | 24.44° C | 20% | 1013.9 hPa | 0 mm | 2.68 m/s, 192° | - | - |
| 1777995299 | 25° C | 20% | 1014 hPa | 0 mm | 2.68 m/s, 257° | - | - |
| 1777994698 | 24.44° C | 20% | 1013.9 hPa | 0 mm | 1.79 m/s, 135° | - | - |
| 1777994098 | 24.44° C | 20% | 1014.1 hPa | 0 mm | 2.24 m/s, 251° | - | - |
| 1777993498 | 25.56° C | 20% | 1014 hPa | 0 mm | 2.68 m/s, 238° | - | - |
| 1777992897 | 25.56° C | 20% | 1014 hPa | 0 mm | 2.24 m/s, 224° | - | - |
| 1777992297 | 26.11° C | 20% | 1014.1 hPa | 0 mm | 2.24 m/s, 253° | - | - |
| 1777991697 | 27.22° C | 20% | 1014.4 hPa | 0 mm | 2.68 m/s, 248° | - | - |
| 1777991097 | 25° C | 20% | 1014.2 hPa | 0 mm | 2.68 m/s, 249° | - | - |
| 1777990496 | 26.67° C | 20% | 1014.5 hPa | 0 mm | 2.24 m/s, 254° | - | - |
| 1777989896 | 25° C | 20% | 1014.4 hPa | 0 mm | 2.68 m/s, 224° | - | - |
| 1777989296 | 27.22° C | 20% | 1014.7 hPa | 0 mm | 2.68 m/s, 250° | - | - |
| 1777988695 | 26.11° C | 20% | 1014.6 hPa | 0 mm | 2.24 m/s, 224° | - | - |
| 1777988095 | 25.56° C | 20% | 1014.7 hPa | 0 mm | 3.58 m/s, 243° | - | - |
| 1777987495 | 26.67° C | 20% | 1014.8 hPa | 0 mm | 3.58 m/s, 272° | - | - |
| 1777986894 | 24.44° C | 20% | 1014.6 hPa | 0 mm | 2.24 m/s, 234° | - | - |
| 1777986294 | 23.89° C | 20% | 1014.5 hPa | 0 mm | 3.13 m/s, 238° | - | - |
| 1777985694 | 24.44° C | 20% | 1014.6 hPa | 0 mm | 2.24 m/s, 335° | - | - |
| 1777985094 | 25° C | 20% | 1014.9 hPa | 0 mm | 3.13 m/s, 321° | - | - |
| 1777984493 | 28.33° C | 20% | 1015.3 hPa | 0 mm | 3.13 m/s, 264° | - | - |
| 1777983893 | 27.22° C | 20% | 1015.4 hPa | 0 mm | 2.24 m/s, 252° | - | - |
| 1777983293 | 27.22° C | 20% | 1015.4 hPa | 0 mm | 2.68 m/s, 239° | - | - |
| 1777982692 | 27.78° C | 20% | 1015.6 hPa | 0 mm | 2.24 m/s, 261° | - | - |
| 1777982092 | 27.78° C | 20% | 1015.7 hPa | 0 mm | 3.13 m/s, 205° | - | - |
* Rain latest hour (hover to see other rain measurements)
** Current wind speed in m/s (hover to see current wind gust speed)